createdAt,value
2022-09-28T00:00:25.943Z,90.05
2022-09-28T00:05:49.044Z,90.40
2022-09-28T00:10:56.147Z,91.02
2022-09-28T00:16:07.594Z,91.32
2022-09-28T00:21:19.772Z,91.29
2022-09-28T00:26:23.996Z,91.86
2022-09-28T00:31:30.400Z,92.48
2022-09-28T00:36:35.225Z,92.71
2022-09-28T00:41:39.352Z,92.99
2022-09-28T00:46:42.514Z,93.01
2022-09-28T00:51:47.508Z,92.92
2022-09-28T00:56:50.819Z,92.68
2022-09-28T01:01:54.069Z,92.66
2022-09-28T01:06:59.389Z,92.65
2022-09-28T01:12:03.015Z,92.63
2022-09-28T01:17:41.848Z,92.52
2022-09-28T01:23:19.366Z,92.43
2022-09-28T01:28:28.303Z,92.32
2022-09-28T01:33:40.319Z,92.14
2022-09-28T01:39:11.275Z,91.95
2022-09-28T01:44:18.692Z,91.84
2022-09-28T01:49:27.931Z,91.77
2022-09-28T01:54:53.159Z,91.67
2022-09-28T02:00:03.737Z,91.56
2022-09-28T02:05:20.872Z,91.50
2022-09-28T02:10:30.633Z,91.63
2022-09-28T02:15:33.637Z,91.73
2022-09-28T02:20:41.169Z,91.79
2022-09-28T02:25:51.896Z,91.61
2022-09-28T02:30:55.650Z,91.77
2022-09-28T02:36:01.115Z,91.71
2022-09-28T02:41:16.915Z,91.60
2022-09-28T02:46:41.146Z,91.46
2022-09-28T02:52:15.779Z,91.30
2022-09-28T02:57:27.884Z,91.67
2022-09-28T03:02:49.645Z,91.63
2022-09-28T03:08:01.074Z,91.80
2022-09-28T03:13:05.276Z,92.05
2022-09-28T03:18:08.663Z,92.22
2022-09-28T03:23:27.123Z,92.41
2022-09-28T03:28:30.303Z,92.56
2022-09-28T03:33:33.367Z,92.74
2022-09-28T03:38:36.468Z,92.86
2022-09-28T03:43:40.058Z,92.93
2022-09-28T03:48:43.258Z,92.99
2022-09-28T03:53:46.291Z,93.03
2022-09-28T03:58:49.375Z,93.04
2022-09-28T04:03:56.153Z,93.08
2022-09-28T04:08:59.462Z,93.14
2022-09-28T04:14:02.570Z,93.15
2022-09-28T04:19:05.608Z,93.09
2022-09-28T04:24:10.400Z,92.96
2022-09-28T04:29:16.298Z,93.00
2022-09-28T04:34:22.095Z,93.07
2022-09-28T04:39:25.166Z,93.20
2022-09-28T04:44:28.172Z,93.30
2022-09-28T04:49:31.706Z,93.21
2022-09-28T04:54:34.841Z,93.28
2022-09-28T04:59:37.954Z,93.34
2022-09-28T05:04:41.434Z,93.36
2022-09-28T05:09:44.559Z,93.31
2022-09-28T05:14:47.846Z,93.32
2022-09-28T05:19:50.848Z,93.43
2022-09-28T05:24:55.388Z,93.37
2022-09-28T05:29:58.599Z,93.42
2022-09-28T05:35:01.493Z,93.48
2022-09-28T05:40:06.793Z,93.37
2022-09-28T05:45:10.781Z,93.42
2022-09-28T05:50:16.344Z,93.60
2022-09-28T05:55:19.557Z,93.76
2022-09-28T06:00:23.600Z,93.85
2022-09-28T06:05:28.227Z,93.91
2022-09-28T06:10:31.938Z,93.99
2022-09-28T06:15:37.124Z,94.08
2022-09-28T06:20:42.553Z,94.13
2022-09-28T06:25:47.058Z,94.12
2022-09-28T06:30:51.297Z,94.13
2022-09-28T06:35:55.062Z,94.16
2022-09-28T06:40:59.528Z,94.12
2022-09-28T06:46:04.102Z,94.10
2022-09-28T06:51:08.598Z,94.00
2022-09-28T06:56:13.054Z,93.86
2022-09-28T07:01:17.481Z,93.63
2022-09-28T07:06:24.735Z,93.44
2022-09-28T07:11:30.460Z,93.28
2022-09-28T07:16:57.512Z,93.23
2022-09-28T07:22:04.478Z,93.21
2022-09-28T07:27:10.132Z,93.18
2022-09-28T07:32:13.446Z,93.08
2022-09-28T07:37:19.109Z,92.91
2022-09-28T07:42:22.532Z,92.87
2022-09-28T07:47:34.582Z,92.86
2022-09-28T07:52:38.360Z,92.80
2022-09-28T07:57:41.977Z,92.76
2022-09-28T08:02:45.353Z,92.80
2022-09-28T08:07:48.391Z,92.79
2022-09-28T08:13:02.142Z,92.67
2022-09-28T08:18:07.309Z,92.55
2022-09-28T08:23:11.791Z,92.47
2022-09-28T08:28:17.823Z,92.43
2022-09-28T08:33:21.942Z,92.46
2022-09-28T08:38:27.072Z,92.38
2022-09-28T08:44:05.019Z,92.20
2022-09-28T08:49:30.738Z,91.57
2022-09-28T08:54:48.996Z,90.53
2022-09-28T08:59:58.726Z,89.66
2022-09-28T09:05:06.866Z,88.94
2022-09-28T09:10:51.070Z,87.52
2022-09-28T09:16:32.845Z,86.21
2022-09-28T09:21:56.360Z,85.40
2022-09-28T09:27:39.612Z,83.23
2022-09-28T09:33:01.354Z,80.89
2022-09-28T09:38:19.717Z,80.37
2022-09-28T09:43:31.595Z,80.96
2022-09-28T09:49:01.054Z,79.13
2022-09-28T09:54:12.557Z,77.03
2022-09-28T09:59:22.504Z,75.38
2022-09-28T10:04:35.424Z,73.92
2022-09-28T10:09:43.597Z,70.23
2022-09-28T10:14:47.412Z,69.41
2022-09-28T10:19:50.714Z,69.97
2022-09-28T10:24:57.924Z,70.32
2022-09-28T10:30:16.796Z,69.55
2022-09-28T10:35:20.203Z,68.78
2022-09-28T10:40:50.733Z,68.46
2022-09-28T10:46:24.009Z,69.43
2022-09-28T10:51:42.226Z,70.68
2022-09-28T10:56:46.397Z,72.56
2022-09-28T11:01:56.216Z,72.29
2022-09-28T11:07:02.122Z,71.06
2022-09-28T11:12:13.794Z,70.05
2022-09-28T11:17:19.055Z,67.71
2022-09-28T11:22:34.447Z,68.73
2022-09-28T11:27:37.857Z,70.29
2022-09-28T11:32:45.720Z,71.40
2022-09-28T11:38:17.863Z,72.23
2022-09-28T11:44:01.129Z,73.05
2022-09-28T11:49:10.154Z,73.33
2022-09-28T11:54:33.843Z,73.12
2022-09-28T11:59:46.981Z,70.62
2022-09-28T12:05:17.202Z,68.95
2022-09-28T12:10:48.496Z,69.88
2022-09-28T12:16:32.749Z,70.20
2022-09-28T12:21:53.378Z,69.35
2022-09-28T12:27:21.261Z,67.19
2022-09-28T12:32:37.782Z,67.30
2022-09-28T12:38:14.989Z,67.89
2022-09-28T12:43:54.853Z,68.97
2022-09-28T12:55:05.417Z,69.43
2022-09-28T13:00:14.989Z,68.71
2022-09-28T13:05:47.056Z,68.86
2022-09-28T13:11:20.766Z,68.73
2022-09-28T13:16:34.217Z,69.32
2022-09-28T13:21:47.778Z,68.13
2022-09-28T13:26:52.583Z,67.83
2022-09-28T13:32:00.452Z,68.07
2022-09-28T13:37:17.667Z,69.32
2022-09-28T13:42:42.280Z,69.24
2022-09-28T13:47:52.872Z,67.50
2022-09-28T13:53:09.474Z,66.19
2022-09-28T13:58:22.608Z,68.41
2022-09-28T14:03:43.734Z,66.71
2022-09-28T14:09:13.694Z,66.20
2022-09-28T14:14:18.304Z,65.94
2022-09-28T14:19:32.572Z,66.05
2022-09-28T14:24:56.085Z,66.77
2022-09-28T14:30:27.454Z,67.16
2022-09-28T14:35:39.845Z,68.32
2022-09-28T14:41:11.528Z,68.72
2022-09-28T14:46:19.318Z,68.38
2022-09-28T14:51:38.102Z,67.05
2022-09-28T14:56:43.972Z,67.04
2022-09-28T15:02:17.272Z,67.55
2022-09-28T15:07:26.816Z,68.34
2022-09-28T15:12:31.794Z,68.47
2022-09-28T15:17:40.005Z,68.94
2022-09-28T15:22:52.267Z,69.70
2022-09-28T15:28:01.959Z,69.65
2022-09-28T15:33:48.560Z,70.45
2022-09-28T15:39:07.170Z,69.75
2022-09-28T15:44:12.577Z,70.07
2022-09-28T15:49:47.516Z,70.68
2022-09-28T15:54:56.497Z,71.25
2022-09-28T16:00:07.028Z,72.71
2022-09-28T16:05:36.915Z,74.49
2022-09-28T16:10:58.705Z,74.93
2022-09-28T16:16:02.814Z,75.09
2022-09-28T16:21:28.820Z,76.36
2022-09-28T16:26:37.898Z,77.61
2022-09-28T16:31:44.408Z,78.73
2022-09-28T16:36:49.664Z,80.20
2022-09-28T16:41:56.971Z,81.19
2022-09-28T16:47:01.307Z,81.07
2022-09-28T16:52:13.853Z,81.65
2022-09-28T16:57:18.490Z,81.99
2022-09-28T17:08:01.042Z,85.79
2022-09-28T17:13:04.666Z,86.26
2022-09-28T17:18:09.092Z,86.96
2022-09-28T17:23:12.710Z,87.57
2022-09-28T17:28:21.033Z,87.73
2022-09-28T17:33:25.612Z,87.63
2022-09-28T17:38:29.704Z,88.37
2022-09-28T17:43:33.114Z,88.05
2022-09-28T17:48:36.994Z,87.98
2022-09-28T17:53:41.344Z,87.84
2022-09-28T17:58:45.404Z,87.94
2022-09-28T18:03:51.085Z,87.83
2022-09-28T18:08:55.931Z,87.95
2022-09-28T18:14:01.052Z,87.71
2022-09-28T18:19:07.486Z,87.32
2022-09-28T18:24:13.029Z,87.05
2022-09-28T18:29:20.651Z,86.74
2022-09-28T18:34:26.121Z,86.58
2022-09-28T18:39:31.255Z,86.68
2022-09-28T18:44:36.185Z,86.71
2022-09-28T18:49:46.450Z,86.80
2022-09-28T18:54:51.277Z,86.75
2022-09-28T18:59:55.884Z,86.82
2022-09-28T19:05:00.398Z,86.91
2022-09-28T19:10:06.304Z,86.87
2022-09-28T19:15:12.358Z,87.00
2022-09-28T19:20:20.512Z,86.88
2022-09-28T19:25:27.537Z,86.83
2022-09-28T19:30:33.195Z,86.91
2022-09-28T19:35:37.840Z,86.90
2022-09-28T19:40:42.777Z,86.83
2022-09-28T19:45:51.174Z,86.93
2022-09-28T19:51:07.079Z,87.03
2022-09-28T19:56:10.991Z,87.16
2022-09-28T20:01:14.328Z,87.38
2022-09-28T20:06:17.912Z,87.58
2022-09-28T20:11:22.137Z,87.90
2022-09-28T20:16:28.111Z,87.75
2022-09-28T20:21:31.928Z,87.74
2022-09-28T20:26:37.954Z,87.83
2022-09-28T20:31:41.430Z,87.46
2022-09-28T20:36:45.218Z,87.59
2022-09-28T20:41:49.886Z,87.86
2022-09-28T20:46:53.399Z,88.58
2022-09-28T20:51:57.221Z,87.75
2022-09-28T20:57:00.360Z,88.12
2022-09-28T21:02:03.882Z,87.54
2022-09-28T21:07:08.869Z,88.06
2022-09-28T21:12:13.133Z,88.73
2022-09-28T21:17:16.853Z,88.96
2022-09-28T21:22:20.055Z,89.21
2022-09-28T21:27:23.368Z,88.86
2022-09-28T21:32:26.412Z,88.85
2022-09-28T21:37:29.777Z,88.50
2022-09-28T21:42:32.782Z,89.07
2022-09-28T21:47:35.999Z,89.47
2022-09-28T21:52:39.853Z,89.16
2022-09-28T21:57:43.227Z,89.44
2022-09-28T22:02:46.344Z,89.56
2022-09-28T22:07:49.642Z,89.63
2022-09-28T22:12:52.662Z,90.79
2022-09-28T22:17:55.757Z,91.07
2022-09-28T22:22:58.857Z,91.35
2022-09-28T22:28:01.963Z,91.54
2022-09-28T22:33:05.172Z,91.65
2022-09-28T22:38:08.689Z,91.88
2022-09-28T22:43:11.895Z,92.14
2022-09-28T22:48:15.817Z,92.42
2022-09-28T22:53:19.744Z,92.70
2022-09-28T22:58:23.979Z,92.91
2022-09-28T23:03:27.184Z,93.15
2022-09-28T23:08:30.499Z,93.27
2022-09-28T23:13:33.599Z,93.31
2022-09-28T23:18:41.126Z,93.30
2022-09-28T23:23:45.783Z,93.38
2022-09-28T23:28:49.063Z,93.52
2022-09-28T23:33:52.779Z,93.71
2022-09-28T23:38:56.101Z,93.74
2022-09-28T23:43:59.204Z,93.64
2022-09-28T23:49:02.514Z,93.67
2022-09-28T23:54:06.915Z,93.91
2022-09-28T23:59:09.956Z,94.17
